sensor_id;sensor_type;location;lat;lon;timestamp;P1;durP1;ratioP1;P2;durP2;ratioP2
34234;SDS011;20500;49.856;20.290;2022-08-25T00:00:00;17.90;;;5.60;;
34234;SDS011;20500;49.856;20.290;2022-08-25T00:03:08;22.40;;;5.80;;
34234;SDS011;20500;49.856;20.290;2022-08-25T00:06:15;18.40;;;6.70;;
34234;SDS011;20500;49.856;20.290;2022-08-25T00:09:22;21.10;;;6.70;;
34234;SDS011;20500;49.856;20.290;2022-08-25T00:12:29;19.20;;;8.00;;
34234;SDS011;20500;49.856;20.290;2022-08-25T00:15:36;17.50;;;7.60;;
34234;SDS011;20500;49.856;20.290;2022-08-25T00:18:43;18.10;;;7.70;;
34234;SDS011;20500;49.856;20.290;2022-08-25T00:21:51;18.10;;;7.70;;
34234;SDS011;20500;49.856;20.290;2022-08-25T00:24:57;17.00;;;6.60;;
34234;SDS011;20500;49.856;20.290;2022-08-25T00:28:03;15.00;;;6.30;;
34234;SDS011;20500;49.856;20.290;2022-08-25T00:31:11;13.40;;;5.80;;
34234;SDS011;20500;49.856;20.290;2022-08-25T00:34:21;15.90;;;5.70;;
34234;SDS011;20500;49.856;20.290;2022-08-25T00:37:31;17.40;;;6.00;;
34234;SDS011;20500;49.856;20.290;2022-08-25T00:40:39;18.10;;;6.60;;
34234;SDS011;20500;49.856;20.290;2022-08-25T00:43:47;17.40;;;6.80;;
34234;SDS011;20500;49.856;20.290;2022-08-25T00:46:57;19.10;;;6.50;;
34234;SDS011;20500;49.856;20.290;2022-08-25T00:50:06;31.20;;;7.10;;
34234;SDS011;20500;49.856;20.290;2022-08-25T00:53:14;32.90;;;6.90;;
34234;SDS011;20500;49.856;20.290;2022-08-25T00:56:21;21.50;;;7.90;;
34234;SDS011;20500;49.856;20.290;2022-08-25T00:59:27;16.50;;;6.30;;
34234;SDS011;20500;49.856;20.290;2022-08-25T01:02:34;15.90;;;6.50;;
34234;SDS011;20500;49.856;20.290;2022-08-25T01:05:41;15.90;;;6.40;;
34234;SDS011;20500;49.856;20.290;2022-08-25T01:08:49;18.20;;;7.60;;
34234;SDS011;20500;49.856;20.290;2022-08-25T01:11:58;27.30;;;8.30;;
34234;SDS011;20500;49.856;20.290;2022-08-25T01:15:05;27.60;;;7.80;;
34234;SDS011;20500;49.856;20.290;2022-08-25T01:18:14;19.10;;;7.30;;
34234;SDS011;20500;49.856;20.290;2022-08-25T01:21:21;36.70;;;7.60;;
34234;SDS011;20500;49.856;20.290;2022-08-25T01:24:30;27.90;;;7.40;;
34234;SDS011;20500;49.856;20.290;2022-08-25T01:27:41;17.30;;;6.70;;
34234;SDS011;20500;49.856;20.290;2022-08-25T01:30:47;12.80;;;6.40;;
34234;SDS011;20500;49.856;20.290;2022-08-25T01:33:54;17.40;;;6.20;;
34234;SDS011;20500;49.856;20.290;2022-08-25T01:37:01;16.80;;;6.40;;
34234;SDS011;20500;49.856;20.290;2022-08-25T01:40:09;15.80;;;6.00;;
34234;SDS011;20500;49.856;20.290;2022-08-25T01:43:30;17.20;;;6.20;;
34234;SDS011;20500;49.856;20.290;2022-08-25T01:46:41;14.60;;;7.00;;
34234;SDS011;20500;49.856;20.290;2022-08-25T01:49:48;16.70;;;6.00;;
34234;SDS011;20500;49.856;20.290;2022-08-25T01:52:59;16.30;;;6.00;;
34234;SDS011;20500;49.856;20.290;2022-08-25T01:56:11;17.10;;;6.30;;
34234;SDS011;20500;49.856;20.290;2022-08-25T01:59:20;15.20;;;6.50;;
34234;SDS011;20500;49.856;20.290;2022-08-25T02:02:27;15.70;;;6.60;;
34234;SDS011;20500;49.856;20.290;2022-08-25T02:05:34;15.40;;;6.40;;
34234;SDS011;20500;49.856;20.290;2022-08-25T02:08:41;23.40;;;5.70;;
34234;SDS011;20500;49.856;20.290;2022-08-25T02:11:47;13.50;;;5.80;;
34234;SDS011;20500;49.856;20.290;2022-08-25T02:14:53;12.10;;;5.90;;
34234;SDS011;20500;49.856;20.290;2022-08-25T02:18:00;11.20;;;5.40;;
34234;SDS011;20500;49.856;20.290;2022-08-25T02:21:06;10.80;;;5.60;;
34234;SDS011;20500;49.856;20.290;2022-08-25T02:24:13;13.00;;;6.10;;
34234;SDS011;20500;49.856;20.290;2022-08-25T02:27:20;11.80;;;5.80;;
34234;SDS011;20500;49.856;20.290;2022-08-25T02:30:26;15.20;;;5.60;;
34234;SDS011;20500;49.856;20.290;2022-08-25T02:33:32;11.20;;;5.50;;
34234;SDS011;20500;49.856;20.290;2022-08-25T02:36:39;11.50;;;5.20;;
34234;SDS011;20500;49.856;20.290;2022-08-25T02:39:46;13.30;;;5.10;;
34234;SDS011;20500;49.856;20.290;2022-08-25T02:42:52;12.40;;;5.20;;
34234;SDS011;20500;49.856;20.290;2022-08-25T02:45:59;13.90;;;5.30;;
34234;SDS011;20500;49.856;20.290;2022-08-25T02:49:08;11.50;;;4.50;;
34234;SDS011;20500;49.856;20.290;2022-08-25T02:52:14;10.80;;;4.80;;
34234;SDS011;20500;49.856;20.290;2022-08-25T02:55:21;12.80;;;4.70;;
34234;SDS011;20500;49.856;20.290;2022-08-25T02:58:27;13.30;;;4.30;;
34234;SDS011;20500;49.856;20.290;2022-08-25T03:01:33;10.70;;;4.50;;
34234;SDS011;20500;49.856;20.290;2022-08-25T03:04:39;10.20;;;4.20;;
34234;SDS011;20500;49.856;20.290;2022-08-25T03:07:46;11.50;;;4.50;;
34234;SDS011;20500;49.856;20.290;2022-08-25T03:10:55;9.80;;;4.10;;
34234;SDS011;20500;49.856;20.290;2022-08-25T03:14:02;10.20;;;3.90;;
34234;SDS011;20500;49.856;20.290;2022-08-25T03:17:08;13.00;;;4.60;;
34234;SDS011;20500;49.856;20.290;2022-08-25T03:20:14;18.50;;;4.60;;
34234;SDS011;20500;49.856;20.290;2022-08-25T03:23:21;17.20;;;4.80;;
34234;SDS011;20500;49.856;20.290;2022-08-25T03:26:28;11.90;;;4.60;;
34234;SDS011;20500;49.856;20.290;2022-08-25T03:29:52;10.60;;;4.60;;
34234;SDS011;20500;49.856;20.290;2022-08-25T03:32:58;12.40;;;4.70;;
34234;SDS011;20500;49.856;20.290;2022-08-25T03:36:05;11.50;;;4.80;;
34234;SDS011;20500;49.856;20.290;2022-08-25T03:39:14;12.60;;;4.60;;
34234;SDS011;20500;49.856;20.290;2022-08-25T03:42:21;11.50;;;4.50;;
34234;SDS011;20500;49.856;20.290;2022-08-25T03:45:28;11.30;;;4.50;;
34234;SDS011;20500;49.856;20.290;2022-08-25T03:48:34;13.20;;;5.50;;
34234;SDS011;20500;49.856;20.290;2022-08-25T03:51:41;13.70;;;5.20;;
34234;SDS011;20500;49.856;20.290;2022-08-25T03:54:49;12.90;;;5.20;;
34234;SDS011;20500;49.856;20.290;2022-08-25T03:57:56;9.10;;;4.10;;
34234;SDS011;20500;49.856;20.290;2022-08-25T04:01:02;9.90;;;4.50;;
34234;SDS011;20500;49.856;20.290;2022-08-25T04:04:09;14.50;;;5.30;;
34234;SDS011;20500;49.856;20.290;2022-08-25T04:07:16;11.80;;;4.20;;
34234;SDS011;20500;49.856;20.290;2022-08-25T04:10:22;11.20;;;4.50;;
34234;SDS011;20500;49.856;20.290;2022-08-25T04:13:28;9.20;;;4.20;;
34234;SDS011;20500;49.856;20.290;2022-08-25T04:16:35;13.90;;;4.40;;
34234;SDS011;20500;49.856;20.290;2022-08-25T04:19:41;10.20;;;4.10;;
34234;SDS011;20500;49.856;20.290;2022-08-25T04:22:47;11.10;;;4.70;;
34234;SDS011;20500;49.856;20.290;2022-08-25T04:25:53;13.10;;;4.40;;
34234;SDS011;20500;49.856;20.290;2022-08-25T04:29:00;9.60;;;4.70;;
34234;SDS011;20500;49.856;20.290;2022-08-25T04:32:08;9.90;;;4.90;;
34234;SDS011;20500;49.856;20.290;2022-08-25T04:35:16;14.80;;;5.10;;
34234;SDS011;20500;49.856;20.290;2022-08-25T04:38:23;18.10;;;4.60;;
34234;SDS011;20500;49.856;20.290;2022-08-25T04:41:29;14.60;;;4.70;;
34234;SDS011;20500;49.856;20.290;2022-08-25T04:44:37;17.90;;;5.00;;
34234;SDS011;20500;49.856;20.290;2022-08-25T04:47:43;14.50;;;4.40;;
34234;SDS011;20500;49.856;20.290;2022-08-25T04:50:56;10.80;;;4.50;;
34234;SDS011;20500;49.856;20.290;2022-08-25T04:54:03;24.80;;;4.20;;
34234;SDS011;20500;49.856;20.290;2022-08-25T04:57:12;11.60;;;4.50;;
34234;SDS011;20500;49.856;20.290;2022-08-25T05:00:18;11.60;;;4.90;;
34234;SDS011;20500;49.856;20.290;2022-08-25T05:03:24;9.80;;;4.80;;
34234;SDS011;20500;49.856;20.290;2022-08-25T05:06:31;16.90;;;4.70;;
34234;SDS011;20500;49.856;20.290;2022-08-25T05:09:37;12.50;;;4.50;;
34234;SDS011;20500;49.856;20.290;2022-08-25T05:12:44;16.00;;;4.30;;
34234;SDS011;20500;49.856;20.290;2022-08-25T05:15:54;9.90;;;4.50;;
34234;SDS011;20500;49.856;20.290;2022-08-25T05:19:02;11.00;;;4.40;;
34234;SDS011;20500;49.856;20.290;2022-08-25T05:22:09;10.60;;;4.30;;
34234;SDS011;20500;49.856;20.290;2022-08-25T05:25:15;9.20;;;4.20;;
34234;SDS011;20500;49.856;20.290;2022-08-25T05:28:22;10.90;;;6.20;;
34234;SDS011;20500;49.856;20.290;2022-08-25T05:31:28;14.00;;;8.90;;
34234;SDS011;20500;49.856;20.290;2022-08-25T05:34:36;11.90;;;6.60;;
34234;SDS011;20500;49.856;20.290;2022-08-25T05:37:42;12.90;;;7.50;;
34234;SDS011;20500;49.856;20.290;2022-08-25T05:40:49;13.60;;;7.70;;
34234;SDS011;20500;49.856;20.290;2022-08-25T05:43:59;14.80;;;5.30;;
34234;SDS011;20500;49.856;20.290;2022-08-25T05:47:06;9.50;;;4.50;;
34234;SDS011;20500;49.856;20.290;2022-08-25T05:50:12;12.30;;;6.70;;
34234;SDS011;20500;49.856;20.290;2022-08-25T05:53:18;11.40;;;5.30;;
34234;SDS011;20500;49.856;20.290;2022-08-25T05:56:24;10.40;;;5.00;;
34234;SDS011;20500;49.856;20.290;2022-08-25T05:59:31;12.50;;;5.90;;
34234;SDS011;20500;49.856;20.290;2022-08-25T06:02:37;12.30;;;7.70;;
34234;SDS011;20500;49.856;20.290;2022-08-25T06:05:45;12.80;;;7.70;;
34234;SDS011;20500;49.856;20.290;2022-08-25T06:08:52;9.90;;;5.20;;
34234;SDS011;20500;49.856;20.290;2022-08-25T06:11:58;10.10;;;5.30;;
34234;SDS011;20500;49.856;20.290;2022-08-25T06:15:05;11.40;;;5.50;;
34234;SDS011;20500;49.856;20.290;2022-08-25T06:18:13;10.50;;;5.30;;
34234;SDS011;20500;49.856;20.290;2022-08-25T06:21:19;13.30;;;8.10;;
34234;SDS011;20500;49.856;20.290;2022-08-25T06:24:25;19.20;;;13.10;;
34234;SDS011;20500;49.856;20.290;2022-08-25T06:27:32;14.60;;;10.20;;
34234;SDS011;20500;49.856;20.290;2022-08-25T06:30:39;11.50;;;6.10;;
34234;SDS011;20500;49.856;20.290;2022-08-25T06:33:45;13.00;;;7.60;;
34234;SDS011;20500;49.856;20.290;2022-08-25T06:36:52;13.40;;;7.10;;
34234;SDS011;20500;49.856;20.290;2022-08-25T06:39:58;11.70;;;6.90;;
34234;SDS011;20500;49.856;20.290;2022-08-25T06:43:05;13.60;;;7.90;;
34234;SDS011;20500;49.856;20.290;2022-08-25T06:46:12;14.60;;;9.00;;
34234;SDS011;20500;49.856;20.290;2022-08-25T06:49:21;16.60;;;11.80;;
34234;SDS011;20500;49.856;20.290;2022-08-25T06:52:34;17.60;;;9.80;;
34234;SDS011;20500;49.856;20.290;2022-08-25T06:55:41;15.30;;;8.30;;
34234;SDS011;20500;49.856;20.290;2022-08-25T06:58:47;12.60;;;7.40;;
34234;SDS011;20500;49.856;20.290;2022-08-25T07:01:53;20.20;;;12.70;;
34234;SDS011;20500;49.856;20.290;2022-08-25T07:05:00;17.00;;;11.00;;
34234;SDS011;20500;49.856;20.290;2022-08-25T07:08:10;13.80;;;6.80;;
34234;SDS011;20500;49.856;20.290;2022-08-25T07:11:16;13.60;;;6.70;;
34234;SDS011;20500;49.856;20.290;2022-08-25T07:14:23;15.10;;;8.10;;
34234;SDS011;20500;49.856;20.290;2022-08-25T07:17:29;18.80;;;8.20;;
34234;SDS011;20500;49.856;20.290;2022-08-25T07:20:35;16.50;;;6.50;;
34234;SDS011;20500;49.856;20.290;2022-08-25T07:23:42;15.30;;;6.90;;
34234;SDS011;20500;49.856;20.290;2022-08-25T07:26:48;18.20;;;5.90;;
34234;SDS011;20500;49.856;20.290;2022-08-25T07:29:55;18.40;;;5.90;;
34234;SDS011;20500;49.856;20.290;2022-08-25T07:33:02;18.50;;;5.70;;
34234;SDS011;20500;49.856;20.290;2022-08-25T07:36:09;19.20;;;6.40;;
34234;SDS011;20500;49.856;20.290;2022-08-25T07:39:18;16.30;;;6.50;;
34234;SDS011;20500;49.856;20.290;2022-08-25T07:42:24;16.00;;;5.60;;
34234;SDS011;20500;49.856;20.290;2022-08-25T07:45:31;20.90;;;7.70;;
34234;SDS011;20500;49.856;20.290;2022-08-25T07:48:51;17.60;;;5.80;;
34234;SDS011;20500;49.856;20.290;2022-08-25T07:51:57;20.60;;;7.70;;
34234;SDS011;20500;49.856;20.290;2022-08-25T07:55:07;21.30;;;9.40;;
34234;SDS011;20500;49.856;20.290;2022-08-25T07:58:19;21.20;;;11.30;;
34234;SDS011;20500;49.856;20.290;2022-08-25T08:01:26;18.40;;;6.80;;
34234;SDS011;20500;49.856;20.290;2022-08-25T08:04:32;19.60;;;6.70;;
34234;SDS011;20500;49.856;20.290;2022-08-25T08:07:43;24.00;;;10.90;;
34234;SDS011;20500;49.856;20.290;2022-08-25T08:10:49;24.40;;;9.80;;
34234;SDS011;20500;49.856;20.290;2022-08-25T08:14:07;28.60;;;10.00;;
34234;SDS011;20500;49.856;20.290;2022-08-25T08:17:20;22.90;;;7.20;;
34234;SDS011;20500;49.856;20.290;2022-08-25T08:20:27;20.80;;;7.00;;
34234;SDS011;20500;49.856;20.290;2022-08-25T08:23:45;24.30;;;9.70;;
34234;SDS011;20500;49.856;20.290;2022-08-25T08:26:52;24.90;;;7.40;;
34234;SDS011;20500;49.856;20.290;2022-08-25T08:30:01;18.80;;;6.60;;
34234;SDS011;20500;49.856;20.290;2022-08-25T08:33:08;19.30;;;6.70;;
34234;SDS011;20500;49.856;20.290;2022-08-25T08:36:15;22.40;;;10.20;;
34234;SDS011;20500;49.856;20.290;2022-08-25T08:39:22;26.60;;;14.50;;
34234;SDS011;20500;49.856;20.290;2022-08-25T08:42:35;23.50;;;7.70;;
34234;SDS011;20500;49.856;20.290;2022-08-25T08:45:49;19.80;;;6.50;;
34234;SDS011;20500;49.856;20.290;2022-08-25T08:48:57;22.70;;;7.70;;
34234;SDS011;20500;49.856;20.290;2022-08-25T08:52:09;22.20;;;7.80;;
34234;SDS011;20500;49.856;20.290;2022-08-25T08:55:25;22.10;;;6.60;;
34234;SDS011;20500;49.856;20.290;2022-08-25T08:58:39;27.30;;;7.60;;
34234;SDS011;20500;49.856;20.290;2022-08-25T09:01:52;22.30;;;7.60;;
34234;SDS011;20500;49.856;20.290;2022-08-25T09:05:03;27.10;;;8.30;;
34234;SDS011;20500;49.856;20.290;2022-08-25T09:08:14;23.30;;;6.60;;
34234;SDS011;20500;49.856;20.290;2022-08-25T09:11:24;23.90;;;6.90;;
34234;SDS011;20500;49.856;20.290;2022-08-25T09:14:44;21.90;;;7.10;;
34234;SDS011;20500;49.856;20.290;2022-08-25T09:18:04;24.20;;;9.10;;
34234;SDS011;20500;49.856;20.290;2022-08-25T09:21:18;24.00;;;7.70;;
34234;SDS011;20500;49.856;20.290;2022-08-25T09:24:41;20.00;;;8.40;;
34234;SDS011;20500;49.856;20.290;2022-08-25T09:28:00;22.00;;;7.30;;
34234;SDS011;20500;49.856;20.290;2022-08-25T09:31:12;22.20;;;6.00;;
34234;SDS011;20500;49.856;20.290;2022-08-25T09:34:31;23.10;;;7.70;;
34234;SDS011;20500;49.856;20.290;2022-08-25T09:37:38;23.80;;;6.80;;
34234;SDS011;20500;49.856;20.290;2022-08-25T09:40:45;28.10;;;8.40;;
34234;SDS011;20500;49.856;20.290;2022-08-25T09:43:53;24.40;;;6.60;;
34234;SDS011;20500;49.856;20.290;2022-08-25T09:47:01;23.60;;;7.00;;
34234;SDS011;20500;49.856;20.290;2022-08-25T09:50:13;22.70;;;7.20;;
34234;SDS011;20500;49.856;20.290;2022-08-25T09:53:22;25.40;;;6.40;;
34234;SDS011;20500;49.856;20.290;2022-08-25T09:56:35;21.90;;;7.10;;
34234;SDS011;20500;49.856;20.290;2022-08-25T09:59:54;23.20;;;6.70;;
34234;SDS011;20500;49.856;20.290;2022-08-25T10:03:02;21.10;;;6.70;;
34234;SDS011;20500;49.856;20.290;2022-08-25T10:06:12;19.70;;;7.10;;
34234;SDS011;20500;49.856;20.290;2022-08-25T10:09:24;22.60;;;8.00;;
34234;SDS011;20500;49.856;20.290;2022-08-25T10:12:37;23.70;;;7.60;;
34234;SDS011;20500;49.856;20.290;2022-08-25T10:15:45;23.10;;;8.80;;
34234;SDS011;20500;49.856;20.290;2022-08-25T10:19:02;22.40;;;7.00;;
34234;SDS011;20500;49.856;20.290;2022-08-25T10:22:19;27.80;;;7.70;;
34234;SDS011;20500;49.856;20.290;2022-08-25T10:25:34;20.60;;;6.80;;
34234;SDS011;20500;49.856;20.290;2022-08-25T10:28:44;20.80;;;6.50;;
34234;SDS011;20500;49.856;20.290;2022-08-25T10:31:56;22.50;;;6.20;;
34234;SDS011;20500;49.856;20.290;2022-08-25T10:35:14;23.50;;;7.20;;
34234;SDS011;20500;49.856;20.290;2022-08-25T10:38:28;21.50;;;7.30;;
34234;SDS011;20500;49.856;20.290;2022-08-25T10:41:47;23.20;;;7.60;;
34234;SDS011;20500;49.856;20.290;2022-08-25T10:45:09;18.20;;;6.80;;
34234;SDS011;20500;49.856;20.290;2022-08-25T10:48:57;23.80;;;7.20;;
34234;SDS011;20500;49.856;20.290;2022-08-25T10:52:06;21.60;;;7.50;;
34234;SDS011;20500;49.856;20.290;2022-08-25T10:55:21;22.50;;;6.60;;
34234;SDS011;20500;49.856;20.290;2022-08-25T10:58:51;23.00;;;7.50;;
34234;SDS011;20500;49.856;20.290;2022-08-25T11:05:53;19.00;;;6.20;;
34234;SDS011;20500;49.856;20.290;2022-08-25T11:09:04;23.70;;;6.60;;
34234;SDS011;20500;49.856;20.290;2022-08-25T11:12:12;23.40;;;6.50;;
34234;SDS011;20500;49.856;20.290;2022-08-25T11:15:27;24.60;;;6.50;;
34234;SDS011;20500;49.856;20.290;2022-08-25T11:18:36;27.50;;;7.60;;
34234;SDS011;20500;49.856;20.290;2022-08-25T11:21:50;22.30;;;6.50;;
34234;SDS011;20500;49.856;20.290;2022-08-25T11:25:06;21.50;;;6.80;;
34234;SDS011;20500;49.856;20.290;2022-08-25T11:28:25;22.70;;;6.50;;
34234;SDS011;20500;49.856;20.290;2022-08-25T11:31:39;26.40;;;6.40;;
34234;SDS011;20500;49.856;20.290;2022-08-25T11:34:55;24.10;;;6.10;;
34234;SDS011;20500;49.856;20.290;2022-08-25T11:38:10;22.00;;;6.30;;
34234;SDS011;20500;49.856;20.290;2022-08-25T11:41:28;27.70;;;7.20;;
34234;SDS011;20500;49.856;20.290;2022-08-25T11:44:45;19.60;;;5.40;;
34234;SDS011;20500;49.856;20.290;2022-08-25T11:48:10;21.00;;;5.90;;
34234;SDS011;20500;49.856;20.290;2022-08-25T11:51:29;22.80;;;6.00;;
34234;SDS011;20500;49.856;20.290;2022-08-25T11:54:41;21.20;;;5.60;;
34234;SDS011;20500;49.856;20.290;2022-08-25T11:57:49;22.10;;;5.60;;
34234;SDS011;20500;49.856;20.290;2022-08-25T12:00:57;23.50;;;6.00;;
34234;SDS011;20500;49.856;20.290;2022-08-25T12:04:10;21.50;;;5.60;;
34234;SDS011;20500;49.856;20.290;2022-08-25T12:07:23;22.80;;;6.50;;
34234;SDS011;20500;49.856;20.290;2022-08-25T12:10:36;27.80;;;6.80;;
34234;SDS011;20500;49.856;20.290;2022-08-25T12:14:13;22.50;;;5.30;;
34234;SDS011;20500;49.856;20.290;2022-08-25T12:17:39;25.80;;;7.10;;
34234;SDS011;20500;49.856;20.290;2022-08-25T12:24:50;24.00;;;6.30;;
34234;SDS011;20500;49.856;20.290;2022-08-25T12:28:08;24.10;;;5.60;;
34234;SDS011;20500;49.856;20.290;2022-08-25T12:31:48;27.70;;;5.70;;
34234;SDS011;20500;49.856;20.290;2022-08-25T12:35:16;22.60;;;6.20;;
34234;SDS011;20500;49.856;20.290;2022-08-25T12:38:32;23.10;;;5.70;;
34234;SDS011;20500;49.856;20.290;2022-08-25T12:41:53;30.00;;;6.20;;
34234;SDS011;20500;49.856;20.290;2022-08-25T12:45:12;22.60;;;5.60;;
34234;SDS011;20500;49.856;20.290;2022-08-25T12:48:53;24.50;;;5.70;;
34234;SDS011;20500;49.856;20.290;2022-08-25T12:52:04;31.10;;;6.70;;
34234;SDS011;20500;49.856;20.290;2022-08-25T12:55:15;29.00;;;5.60;;
34234;SDS011;20500;49.856;20.290;2022-08-25T12:58:26;25.00;;;5.50;;
34234;SDS011;20500;49.856;20.290;2022-08-25T13:02:04;23.60;;;6.20;;
34234;SDS011;20500;49.856;20.290;2022-08-25T13:05:43;23.00;;;5.70;;
34234;SDS011;20500;49.856;20.290;2022-08-25T13:12:44;25.20;;;5.80;;
34234;SDS011;20500;49.856;20.290;2022-08-25T13:16:01;22.50;;;5.70;;
34234;SDS011;20500;49.856;20.290;2022-08-25T13:19:16;28.20;;;6.20;;
34234;SDS011;20500;49.856;20.290;2022-08-25T13:22:23;23.30;;;5.60;;
34234;SDS011;20500;49.856;20.290;2022-08-25T13:25:32;25.30;;;6.30;;
34234;SDS011;20500;49.856;20.290;2022-08-25T13:28:42;28.80;;;5.50;;
34234;SDS011;20500;49.856;20.290;2022-08-25T13:31:55;27.50;;;6.00;;
34234;SDS011;20500;49.856;20.290;2022-08-25T13:35:11;24.90;;;6.10;;
34234;SDS011;20500;49.856;20.290;2022-08-25T13:38:21;25.20;;;5.70;;
34234;SDS011;20500;49.856;20.290;2022-08-25T13:41:31;24.10;;;6.00;;
34234;SDS011;20500;49.856;20.290;2022-08-25T13:44:38;26.60;;;6.80;;
34234;SDS011;20500;49.856;20.290;2022-08-25T13:47:54;21.90;;;5.60;;
34234;SDS011;20500;49.856;20.290;2022-08-25T13:51:06;24.80;;;6.20;;
34234;SDS011;20500;49.856;20.290;2022-08-25T13:54:26;27.60;;;6.20;;
34234;SDS011;20500;49.856;20.290;2022-08-25T13:57:34;25.60;;;6.20;;
34234;SDS011;20500;49.856;20.290;2022-08-25T14:00:46;22.10;;;5.30;;
34234;SDS011;20500;49.856;20.290;2022-08-25T14:07:33;21.60;;;5.40;;
34234;SDS011;20500;49.856;20.290;2022-08-25T14:10:42;24.20;;;5.60;;
34234;SDS011;20500;49.856;20.290;2022-08-25T14:13:57;25.30;;;5.30;;
34234;SDS011;20500;49.856;20.290;2022-08-25T14:17:07;28.40;;;5.80;;
34234;SDS011;20500;49.856;20.290;2022-08-25T14:20:35;19.90;;;5.80;;
34234;SDS011;20500;49.856;20.290;2022-08-25T14:23:47;29.80;;;7.00;;
34234;SDS011;20500;49.856;20.290;2022-08-25T14:26:55;20.80;;;5.40;;
34234;SDS011;20500;49.856;20.290;2022-08-25T14:30:02;30.40;;;6.70;;
34234;SDS011;20500;49.856;20.290;2022-08-25T14:33:09;26.50;;;6.50;;
34234;SDS011;20500;49.856;20.290;2022-08-25T14:36:16;24.80;;;6.30;;
34234;SDS011;20500;49.856;20.290;2022-08-25T14:39:22;21.90;;;6.00;;
34234;SDS011;20500;49.856;20.290;2022-08-25T14:42:29;21.70;;;6.50;;
34234;SDS011;20500;49.856;20.290;2022-08-25T14:45:36;22.20;;;5.90;;
34234;SDS011;20500;49.856;20.290;2022-08-25T14:48:44;25.00;;;5.60;;
34234;SDS011;20500;49.856;20.290;2022-08-25T14:51:54;19.40;;;5.80;;
34234;SDS011;20500;49.856;20.290;2022-08-25T14:55:05;20.90;;;6.00;;
34234;SDS011;20500;49.856;20.290;2022-08-25T14:58:12;22.50;;;5.00;;
34234;SDS011;20500;49.856;20.290;2022-08-25T15:01:28;22.20;;;5.20;;
34234;SDS011;20500;49.856;20.290;2022-08-25T15:04:35;22.60;;;5.20;;
34234;SDS011;20500;49.856;20.290;2022-08-25T15:07:51;24.00;;;5.60;;
34234;SDS011;20500;49.856;20.290;2022-08-25T15:11:16;24.60;;;5.60;;
34234;SDS011;20500;49.856;20.290;2022-08-25T15:14:23;22.80;;;5.80;;
34234;SDS011;20500;49.856;20.290;2022-08-25T15:17:35;28.00;;;8.00;;
34234;SDS011;20500;49.856;20.290;2022-08-25T15:20:46;17.90;;;5.00;;
34234;SDS011;20500;49.856;20.290;2022-08-25T15:23:53;23.00;;;5.20;;
34234;SDS011;20500;49.856;20.290;2022-08-25T15:27:02;21.60;;;5.60;;
34234;SDS011;20500;49.856;20.290;2022-08-25T15:30:13;20.70;;;5.10;;
34234;SDS011;20500;49.856;20.290;2022-08-25T15:33:20;20.10;;;6.40;;
34234;SDS011;20500;49.856;20.290;2022-08-25T15:36:26;19.60;;;5.70;;
34234;SDS011;20500;49.856;20.290;2022-08-25T15:39:33;27.20;;;6.00;;
34234;SDS011;20500;49.856;20.290;2022-08-25T15:42:39;17.90;;;5.10;;
34234;SDS011;20500;49.856;20.290;2022-08-25T15:45:48;21.10;;;5.20;;
34234;SDS011;20500;49.856;20.290;2022-08-25T15:48:54;18.90;;;5.80;;
34234;SDS011;20500;49.856;20.290;2022-08-25T15:52:01;17.90;;;6.10;;
34234;SDS011;20500;49.856;20.290;2022-08-25T15:55:09;22.70;;;6.40;;
34234;SDS011;20500;49.856;20.290;2022-08-25T15:58:16;18.90;;;5.40;;
34234;SDS011;20500;49.856;20.290;2022-08-25T16:01:23;21.90;;;6.10;;
34234;SDS011;20500;49.856;20.290;2022-08-25T16:04:32;22.10;;;5.70;;
34234;SDS011;20500;49.856;20.290;2022-08-25T16:07:38;20.40;;;6.00;;
34234;SDS011;20500;49.856;20.290;2022-08-25T16:10:47;23.80;;;6.60;;
34234;SDS011;20500;49.856;20.290;2022-08-25T16:13:53;27.50;;;5.90;;
34234;SDS011;20500;49.856;20.290;2022-08-25T16:17:00;21.30;;;5.90;;
34234;SDS011;20500;49.856;20.290;2022-08-25T16:20:08;21.80;;;5.90;;
34234;SDS011;20500;49.856;20.290;2022-08-25T16:23:17;22.80;;;5.70;;
34234;SDS011;20500;49.856;20.290;2022-08-25T16:26:23;22.70;;;5.90;;
34234;SDS011;20500;49.856;20.290;2022-08-25T16:29:30;21.80;;;6.10;;
34234;SDS011;20500;49.856;20.290;2022-08-25T16:32:38;17.40;;;5.60;;
34234;SDS011;20500;49.856;20.290;2022-08-25T16:35:45;20.30;;;6.40;;
34234;SDS011;20500;49.856;20.290;2022-08-25T16:38:51;28.10;;;6.90;;
34234;SDS011;20500;49.856;20.290;2022-08-25T16:42:03;22.40;;;6.20;;
34234;SDS011;20500;49.856;20.290;2022-08-25T16:45:10;21.40;;;6.60;;
34234;SDS011;20500;49.856;20.290;2022-08-25T16:48:16;17.40;;;5.10;;
34234;SDS011;20500;49.856;20.290;2022-08-25T16:51:24;19.40;;;6.10;;
34234;SDS011;20500;49.856;20.290;2022-08-25T16:54:34;20.10;;;5.80;;
34234;SDS011;20500;49.856;20.290;2022-08-25T16:58:06;20.70;;;6.50;;
34234;SDS011;20500;49.856;20.290;2022-08-25T17:01:15;20.00;;;6.70;;
34234;SDS011;20500;49.856;20.290;2022-08-25T17:04:21;21.80;;;6.60;;
34234;SDS011;20500;49.856;20.290;2022-08-25T17:07:34;21.00;;;7.30;;
34234;SDS011;20500;49.856;20.290;2022-08-25T17:10:41;19.50;;;7.40;;
34234;SDS011;20500;49.856;20.290;2022-08-25T17:13:48;16.90;;;7.20;;
34234;SDS011;20500;49.856;20.290;2022-08-25T17:16:57;21.20;;;8.00;;
34234;SDS011;20500;49.856;20.290;2022-08-25T17:20:04;21.90;;;6.60;;
34234;SDS011;20500;49.856;20.290;2022-08-25T17:23:11;21.60;;;7.30;;
34234;SDS011;20500;49.856;20.290;2022-08-25T17:26:17;21.80;;;7.50;;
34234;SDS011;20500;49.856;20.290;2022-08-25T17:29:30;17.30;;;6.40;;
34234;SDS011;20500;49.856;20.290;2022-08-25T17:32:36;20.90;;;6.30;;
34234;SDS011;20500;49.856;20.290;2022-08-25T17:35:48;17.70;;;6.40;;
34234;SDS011;20500;49.856;20.290;2022-08-25T17:38:56;18.90;;;7.30;;
34234;SDS011;20500;49.856;20.290;2022-08-25T17:42:03;19.90;;;7.80;;
34234;SDS011;20500;49.856;20.290;2022-08-25T17:45:11;21.60;;;8.10;;
34234;SDS011;20500;49.856;20.290;2022-08-25T17:48:18;20.40;;;7.40;;
34234;SDS011;20500;49.856;20.290;2022-08-25T17:51:28;24.60;;;6.80;;
34234;SDS011;20500;49.856;20.290;2022-08-25T17:54:35;17.90;;;7.40;;
34234;SDS011;20500;49.856;20.290;2022-08-25T17:57:42;19.10;;;7.20;;
34234;SDS011;20500;49.856;20.290;2022-08-25T18:00:48;19.10;;;7.60;;
34234;SDS011;20500;49.856;20.290;2022-08-25T18:03:55;19.00;;;7.70;;
34234;SDS011;20500;49.856;20.290;2022-08-25T18:07:02;22.20;;;8.10;;
34234;SDS011;20500;49.856;20.290;2022-08-25T18:10:09;20.40;;;7.90;;
34234;SDS011;20500;49.856;20.290;2022-08-25T18:13:15;16.70;;;7.50;;
34234;SDS011;20500;49.856;20.290;2022-08-25T18:16:23;18.80;;;8.10;;
34234;SDS011;20500;49.856;20.290;2022-08-25T18:19:30;24.90;;;9.10;;
34234;SDS011;20500;49.856;20.290;2022-08-25T18:22:36;22.00;;;8.90;;
34234;SDS011;20500;49.856;20.290;2022-08-25T18:25:46;23.80;;;8.80;;
34234;SDS011;20500;49.856;20.290;2022-08-25T18:29:02;18.30;;;7.80;;
34234;SDS011;20500;49.856;20.290;2022-08-25T18:32:09;21.00;;;8.80;;
34234;SDS011;20500;49.856;20.290;2022-08-25T18:35:15;25.80;;;9.40;;
34234;SDS011;20500;49.856;20.290;2022-08-25T18:38:23;23.00;;;9.90;;
34234;SDS011;20500;49.856;20.290;2022-08-25T18:41:47;26.40;;;8.80;;
34234;SDS011;20500;49.856;20.290;2022-08-25T18:44:54;22.30;;;8.80;;